createdAt,value
2018-06-30T00:00:04.808Z,28.3
2018-06-30T00:02:07.575Z,28.3
2018-06-30T00:04:04.757Z,28.2
2018-06-30T00:06:04.950Z,28.2
2018-06-30T00:08:05.288Z,28.2
2018-06-30T00:10:05.061Z,28.2
2018-06-30T00:12:04.735Z,28.2
2018-06-30T00:14:04.955Z,28.2
2018-06-30T00:16:04.655Z,28.2
2018-06-30T00:18:05.571Z,28.2
2018-06-30T00:20:05.233Z,28.2
2018-06-30T00:22:04.878Z,28.2
2018-06-30T00:24:05.509Z,28.2
2018-06-30T00:26:04.680Z,28.2
2018-06-30T00:28:05.511Z,28.2
2018-06-30T00:30:05.204Z,28.2
2018-06-30T00:32:07.414Z,28.2
2018-06-30T00:34:05.261Z,28.2
2018-06-30T00:36:05.489Z,28.2
2018-06-30T00:38:10.322Z,28.2
2018-06-30T00:40:05.121Z,28.1
2018-06-30T00:42:05.371Z,28.2
2018-06-30T00:44:07.862Z,28.2
2018-06-30T00:46:09.738Z,28.1
2018-06-30T00:48:10.369Z,28.1
2018-06-30T00:50:04.940Z,28.2
2018-06-30T00:52:07.185Z,28.1
2018-06-30T00:54:05.487Z,28.1
2018-06-30T00:56:05.165Z,28.1
2018-06-30T00:58:12.492Z,28.1
2018-06-30T01:00:05.151Z,28
2018-06-30T01:02:05.106Z,28.1
2018-06-30T01:04:05.296Z,28.1
2018-06-30T01:06:05.057Z,28.1
2018-06-30T01:08:07.843Z,28
2018-06-30T01:10:10.357Z,28
2018-06-30T01:12:05.542Z,28
2018-06-30T01:14:05.212Z,28
2018-06-30T01:16:04.918Z,28
2018-06-30T01:18:04.761Z,28
2018-06-30T01:20:10.571Z,28
2018-06-30T01:22:05.305Z,28
2018-06-30T01:24:05.027Z,28
2018-06-30T01:26:07.773Z,28
2018-06-30T01:28:05.442Z,28
2018-06-30T01:30:07.249Z,28
2018-06-30T01:32:05.086Z,28
2018-06-30T01:34:04.825Z,28
2018-06-30T01:36:05.558Z,28
2018-06-30T01:38:05.309Z,28
2018-06-30T01:40:04.992Z,27.9
2018-06-30T01:42:04.710Z,27.9
2018-06-30T01:44:05.439Z,27.9
2018-06-30T01:46:07.646Z,28
2018-06-30T01:48:05.303Z,27.9
2018-06-30T01:50:05.036Z,27.9
2018-06-30T01:52:04.777Z,27.9
2018-06-30T01:54:08.004Z,27.9
2018-06-30T01:56:04.707Z,27.9
2018-06-30T01:58:07.964Z,27.9
2018-06-30T02:00:07.380Z,27.9
2018-06-30T02:02:05.088Z,27.9
2018-06-30T02:04:04.837Z,27.9
2018-06-30T02:06:05.125Z,27.8
2018-06-30T02:08:04.862Z,27.8
2018-06-30T02:10:05.564Z,27.8
2018-06-30T02:12:05.229Z,27.8
2018-06-30T02:14:07.966Z,27.7
2018-06-30T02:16:04.711Z,27.8
2018-06-30T02:18:04.646Z,27.8
2018-06-30T02:20:05.334Z,27.7
2018-06-30T02:22:05.104Z,27.7
2018-06-30T02:24:07.322Z,27.7
2018-06-30T02:26:04.962Z,27.7
2018-06-30T02:28:04.774Z,27.7
2018-06-30T02:30:05.412Z,27.8
2018-06-30T02:32:07.661Z,27.7
2018-06-30T02:34:04.974Z,27.7
2018-06-30T02:36:07.202Z,27.7
2018-06-30T02:38:04.891Z,27.7
2018-06-30T02:40:05.182Z,27.7
2018-06-30T02:42:04.841Z,27.7
2018-06-30T02:44:05.518Z,27.7
2018-06-30T02:46:05.291Z,27.7
2018-06-30T02:48:05.663Z,27.7
2018-06-30T02:50:05.411Z,27.6
2018-06-30T02:52:05.132Z,27.6
2018-06-30T02:54:07.385Z,27.6
2018-06-30T02:56:08.157Z,27.7
2018-06-30T02:58:04.912Z,27.6
2018-06-30T03:00:04.591Z,27.6
2018-06-30T03:02:05.284Z,27.6
2018-06-30T03:04:08.035Z,27.6
2018-06-30T03:06:04.744Z,27.6
2018-06-30T03:08:07.936Z,27.6
2018-06-30T03:10:07.156Z,27.6
2018-06-30T03:12:04.882Z,27.6
2018-06-30T03:14:04.678Z,27.6
2018-06-30T03:16:05.554Z,27.6
2018-06-30T03:18:08.025Z,27.6
2018-06-30T03:20:09.779Z,27.6
2018-06-30T03:22:08.114Z,27.6
2018-06-30T03:24:05.333Z,27.6
2018-06-30T03:26:08.104Z,27.6
2018-06-30T03:28:04.864Z,27.6
2018-06-30T03:30:08.051Z,27.6
2018-06-30T03:32:07.387Z,27.5
2018-06-30T03:34:10.162Z,27.5
2018-06-30T03:36:09.877Z,27.5
2018-06-30T03:38:10.586Z,27.5
2018-06-30T03:40:10.327Z,27.5
2018-06-30T03:42:05.011Z,27.5
2018-06-30T03:44:04.747Z,27.4
2018-06-30T03:46:05.489Z,27.4
2018-06-30T03:48:05.432Z,27.4
2018-06-30T03:50:10.167Z,27.4
2018-06-30T03:52:10.418Z,27.4
2018-06-30T03:54:05.328Z,27.4
2018-06-30T03:56:05.085Z,27.5
2018-06-30T03:58:04.851Z,27.4
2018-06-30T04:00:05.566Z,27.5
2018-06-30T04:02:05.236Z,27.4
2018-06-30T04:04:07.491Z,27.5
2018-06-30T04:06:05.178Z,27.5
2018-06-30T04:08:09.253Z,27.4
2018-06-30T04:12:36.271Z,27.4
2018-06-30T04:14:05.181Z,27.5
2018-06-30T04:16:04.938Z,27.4
2018-06-30T04:18:07.371Z,27.5
2018-06-30T04:20:05.608Z,27.5
2018-06-30T04:22:07.952Z,27.5
2018-06-30T04:24:04.934Z,27.4
2018-06-30T04:26:09.671Z,27.5
2018-06-30T04:28:05.392Z,27.5
2018-06-30T04:30:07.706Z,27.5
2018-06-30T04:32:05.451Z,27.5
2018-06-30T04:34:15.263Z,27.6
2018-06-30T04:36:04.951Z,27.5
2018-06-30T04:38:07.822Z,27.6
2018-06-30T04:40:10.518Z,27.6
2018-06-30T04:42:05.563Z,27.5
2018-06-30T04:44:04.854Z,27.6
2018-06-30T04:46:05.579Z,27.6
2018-06-30T04:48:05.360Z,27.6
2018-06-30T04:50:10.163Z,27.6
2018-06-30T04:52:09.933Z,27.6
2018-06-30T04:54:04.626Z,27.6
2018-06-30T04:56:07.393Z,27.7
2018-06-30T04:58:07.660Z,27.7
2018-06-30T05:00:04.844Z,27.7
2018-06-30T05:02:10.946Z,27.7
2018-06-30T05:04:05.214Z,27.7
2018-06-30T05:06:07.420Z,27.8
2018-06-30T05:08:05.076Z,27.8
2018-06-30T05:10:07.448Z,27.8
2018-06-30T05:12:05.155Z,27.8
2018-06-30T05:14:10.398Z,27.8
2018-06-30T05:16:05.587Z,27.8
2018-06-30T05:18:05.591Z,27.8
2018-06-30T05:20:05.367Z,27.8
2018-06-30T05:22:07.673Z,27.8
2018-06-30T05:24:05.345Z,27.8
2018-06-30T05:26:05.528Z,27.9
2018-06-30T05:28:05.174Z,27.8
2018-06-30T05:30:07.405Z,27.9
2018-06-30T05:32:05.134Z,27.9
2018-06-30T05:34:07.435Z,27.9
2018-06-30T05:36:05.211Z,27.9
2018-06-30T05:38:05.012Z,27.9
2018-06-30T05:40:04.745Z,27.9
2018-06-30T05:42:04.960Z,27.9
2018-06-30T05:44:05.220Z,27.9
2018-06-30T05:46:07.508Z,28
2018-06-30T05:48:05.162Z,28
2018-06-30T05:50:04.837Z,28
2018-06-30T05:52:05.564Z,28
2018-06-30T05:54:05.249Z,28
2018-06-30T05:56:05.440Z,28
2018-06-30T05:58:05.196Z,28.1
2018-06-30T06:00:12.452Z,28.1
2018-06-30T06:02:05.107Z,28.1
2018-06-30T06:04:04.806Z,28.1
2018-06-30T06:06:05.464Z,28.2
2018-06-30T06:08:10.204Z,28.2
2018-06-30T06:10:07.583Z,28.2
2018-06-30T06:12:05.545Z,28.2
2018-06-30T06:14:04.757Z,28.2
2018-06-30T06:16:05.069Z,28.3
2018-06-30T06:18:05.041Z,28.3
2018-06-30T06:20:04.704Z,28.3
2018-06-30T06:22:05.590Z,28.3
2018-06-30T06:24:07.801Z,28.3
2018-06-30T06:26:05.559Z,28.3
2018-06-30T06:28:05.317Z,28.4
2018-06-30T06:30:05.016Z,28.4
2018-06-30T06:32:04.784Z,28.4
2018-06-30T06:34:05.472Z,28.4
2018-06-30T06:36:05.120Z,28.4
2018-06-30T06:38:04.764Z,28.5
2018-06-30T06:40:13.064Z,28.5
2018-06-30T06:42:07.289Z,28.5
2018-06-30T06:44:04.997Z,28.5
2018-06-30T06:46:04.706Z,28.5
2018-06-30T06:48:07.939Z,28.5
2018-06-30T06:50:05.149Z,28.5
2018-06-30T06:52:04.835Z,28.5
2018-06-30T06:54:05.489Z,28.6
2018-06-30T06:56:05.164Z,28.6
2018-06-30T06:58:04.914Z,28.6
2018-06-30T07:00:04.632Z,28.6
2018-06-30T07:02:05.330Z,28.6
2018-06-30T07:04:04.634Z,28.6
2018-06-30T07:06:05.554Z,28.7
2018-06-30T07:08:05.404Z,28.7
2018-06-30T07:10:05.104Z,28.7
2018-06-30T07:12:04.797Z,28.7
2018-06-30T07:14:05.178Z,28.7
2018-06-30T07:16:04.919Z,28.7
2018-06-30T07:18:10.432Z,28.7
2018-06-30T07:20:10.250Z,28.7
2018-06-30T07:22:04.951Z,28.7
2018-06-30T07:24:10.172Z,28.8
2018-06-30T07:26:05.220Z,28.7
2018-06-30T07:28:05.103Z,28.8
2018-06-30T07:30:05.051Z,28.8
2018-06-30T07:32:04.729Z,28.8
2018-06-30T07:34:07.918Z,28.8
2018-06-30T07:36:05.601Z,28.8
2018-06-30T07:38:05.483Z,28.7
2018-06-30T07:40:05.174Z,28.8
2018-06-30T07:42:04.981Z,28.8
2018-06-30T07:44:04.779Z,28.7
2018-06-30T07:46:08.007Z,28.7
2018-06-30T07:48:05.412Z,28.7
2018-06-30T07:50:05.382Z,28.7
2018-06-30T07:52:05.269Z,28.8
2018-06-30T07:54:05.032Z,28.7
2018-06-30T07:56:05.368Z,28.7
2018-06-30T07:58:05.183Z,28.8
2018-06-30T08:00:05.034Z,28.7
2018-06-30T08:02:04.912Z,28.7
2018-06-30T08:04:05.269Z,28.7
2018-06-30T08:06:15.652Z,28.7
2018-06-30T08:08:07.957Z,28.8
2018-06-30T08:10:07.399Z,28.7
2018-06-30T08:12:05.058Z,28.7
2018-06-30T08:14:05.064Z,28.7
2018-06-30T08:16:05.532Z,28.7
2018-06-30T08:18:05.401Z,28.8
2018-06-30T08:20:05.053Z,28.8
2018-06-30T08:22:07.253Z,28.8
2018-06-30T08:24:05.507Z,28.7
2018-06-30T08:26:07.340Z,28.9
2018-06-30T08:28:07.689Z,28.9
2018-06-30T08:30:05.998Z,28.9
2018-06-30T08:32:04.961Z,28.9
2018-06-30T08:34:07.387Z,28.8
2018-06-30T08:36:10.556Z,28.7
2018-06-30T08:38:08.271Z,28.7
2018-06-30T08:40:10.269Z,28.6
2018-06-30T08:42:05.034Z,28.6
2018-06-30T08:44:05.319Z,28.5
2018-06-30T08:46:05.338Z,28.3
2018-06-30T08:48:07.249Z,28.5
2018-06-30T08:50:07.622Z,28.5
2018-06-30T08:52:05.277Z,28.5
2018-06-30T08:54:05.009Z,28.5
2018-06-30T08:56:04.697Z,28.4
2018-06-30T08:58:05.036Z,28.4
2018-06-30T09:00:04.804Z,28.5
2018-06-30T09:02:05.493Z,28.4
2018-06-30T09:04:05.263Z,28.6
2018-06-30T09:06:05.075Z,28.7
2018-06-30T09:08:09.797Z,28.8
2018-06-30T09:10:08.020Z,28.8
2018-06-30T09:12:04.850Z,28.8
2018-06-30T09:14:05.336Z,28.8
2018-06-30T09:16:07.603Z,28.9
2018-06-30T09:18:05.622Z,28.9
2018-06-30T09:20:10.363Z,28.9
2018-06-30T09:22:08.006Z,28.9
2018-06-30T09:24:05.364Z,28.9
2018-06-30T09:26:05.304Z,28.9
2018-06-30T09:28:05.045Z,28.9
2018-06-30T09:30:04.827Z,28.9
2018-06-30T09:32:05.554Z,29
2018-06-30T09:34:07.789Z,29
2018-06-30T09:36:05.486Z,29
2018-06-30T09:38:07.721Z,28.9
2018-06-30T09:40:05.373Z,28.9
2018-06-30T09:42:05.075Z,28.9
2018-06-30T09:44:04.828Z,28.9
2018-06-30T09:46:05.501Z,29
2018-06-30T09:48:04.702Z,28.9
2018-06-30T09:50:05.438Z,29
2018-06-30T09:52:04.738Z,29
2018-06-30T09:54:05.479Z,28.9
2018-06-30T09:56:05.207Z,28.9
2018-06-30T09:58:04.932Z,28.9
2018-06-30T10:00:05.142Z,28.9
2018-06-30T10:02:07.375Z,28.9
2018-06-30T10:04:07.636Z,28.9
2018-06-30T10:06:05.327Z,28.9
2018-06-30T10:08:05.594Z,28.9
2018-06-30T10:10:05.335Z,28.9
2018-06-30T10:12:05.083Z,28.9
2018-06-30T10:14:07.301Z,28.9
2018-06-30T10:16:04.970Z,28.9
2018-06-30T10:18:05.112Z,28.9
2018-06-30T10:20:05.560Z,28.9
2018-06-30T10:22:12.326Z,28.9
2018-06-30T10:24:05.018Z,28.9
2018-06-30T10:26:07.753Z,28.9
2018-06-30T10:28:05.459Z,28.9
2018-06-30T10:30:07.701Z,28.9
2018-06-30T10:32:05.473Z,28.9
2018-06-30T10:34:10.234Z,28.9
2018-06-30T10:36:04.918Z,28.9
2018-06-30T10:38:04.749Z,28.9
2018-06-30T10:40:05.444Z,28.9
2018-06-30T10:42:05.224Z,28.9
2018-06-30T10:44:04.970Z,28.9
2018-06-30T10:46:05.161Z,28.9
2018-06-30T10:48:04.899Z,28.9
2018-06-30T10:50:05.724Z,29
2018-06-30T10:52:08.000Z,29
2018-06-30T10:54:05.260Z,28.9
2018-06-30T10:56:04.940Z,28.9
2018-06-30T10:58:05.156Z,29
2018-06-30T11:00:04.943Z,29
2018-06-30T11:02:04.792Z,28.9
2018-06-30T11:04:05.574Z,28.9
2018-06-30T11:06:07.969Z,28.9
2018-06-30T11:08:04.749Z,28.9
2018-06-30T11:10:04.979Z,28.9
2018-06-30T11:12:07.279Z,28.9
2018-06-30T11:14:04.981Z,28.9
2018-06-30T11:16:04.696Z,28.9
2018-06-30T11:18:05.614Z,28.9
2018-06-30T11:20:05.360Z,28.9
2018-06-30T11:22:05.159Z,28.9
2018-06-30T11:24:05.416Z,28.9
2018-06-30T11:26:05.131Z,28.9
2018-06-30T11:28:04.926Z,28.9
2018-06-30T11:30:07.231Z,28.9
2018-06-30T11:32:10.171Z,28.9
2018-06-30T11:34:05.230Z,28.9
2018-06-30T11:36:05.223Z,28.9
2018-06-30T11:38:05.226Z,28.9
2018-06-30T11:40:05.302Z,28.9
2018-06-30T11:42:05.247Z,28.9
2018-06-30T11:44:05.194Z,28.8
2018-06-30T11:46:05.196Z,28.9
2018-06-30T11:48:05.166Z,28.9
2018-06-30T11:50:05.561Z,28.9
2018-06-30T11:52:04.988Z,28.9
2018-06-30T11:54:15.126Z,28.9
2018-06-30T11:56:05.437Z,28.9
2018-06-30T11:58:08.053Z,28.9
2018-06-30T12:00:06.065Z,28.9
2018-06-30T12:02:07.692Z,28.9
2018-06-30T12:04:05.279Z,28.9
2018-06-30T12:06:08.106Z,28.9
2018-06-30T12:08:05.548Z,28.9
2018-06-30T12:10:05.618Z,28.9
2018-06-30T12:12:05.608Z,28.9
2018-06-30T12:14:05.476Z,28.9
2018-06-30T12:16:05.291Z,29
2018-06-30T12:18:06.035Z,28.9
2018-06-30T12:20:05.411Z,28.9
2018-06-30T12:22:05.410Z,28.9
2018-06-30T12:24:05.304Z,28.9
2018-06-30T12:26:05.207Z,28.9
2018-06-30T12:28:05.105Z,28.9
2018-06-30T12:30:05.006Z,29
2018-06-30T12:32:05.285Z,29
2018-06-30T12:34:07.332Z,29
2018-06-30T12:36:05.243Z,28.9
2018-06-30T12:38:05.619Z,29
2018-06-30T12:40:05.373Z,29
2018-06-30T12:42:05.202Z,29
2018-06-30T12:44:05.007Z,29
2018-06-30T12:46:04.931Z,29
2018-06-30T12:48:04.865Z,29
2018-06-30T12:50:04.689Z,29
2018-06-30T12:52:04.675Z,29
2018-06-30T12:54:05.568Z,29
2018-06-30T12:56:04.665Z,29
2018-06-30T12:58:05.514Z,29
2018-06-30T13:00:05.639Z,29
2018-06-30T13:02:08.144Z,29
2018-06-30T13:04:10.175Z,29
2018-06-30T13:06:07.268Z,29
2018-06-30T13:08:05.128Z,29
2018-06-30T13:10:05.791Z,29
2018-06-30T13:12:05.021Z,29
2018-06-30T13:14:04.858Z,29
2018-06-30T13:16:04.798Z,29.1
2018-06-30T13:18:04.881Z,29.1
2018-06-30T13:20:10.707Z,29.1
2018-06-30T13:22:08.037Z,29.1
2018-06-30T13:24:05.038Z,29.1
2018-06-30T13:26:05.073Z,29.1
2018-06-30T13:28:05.141Z,29.1
2018-06-30T13:30:05.015Z,29.1
2018-06-30T13:32:12.608Z,29.1
2018-06-30T13:34:06.379Z,29.1
2018-06-30T13:36:12.663Z,29.1
2018-06-30T13:38:10.379Z,29.1
2018-06-30T13:40:05.652Z,29.1
2018-06-30T13:42:05.347Z,29.2
2018-06-30T13:44:05.084Z,29.2
2018-06-30T13:46:06.284Z,29.1
2018-06-30T13:48:05.964Z,29.2
2018-06-30T13:50:04.700Z,29.2
2018-06-30T13:52:07.322Z,29.2
2018-06-30T13:54:05.049Z,29.2
2018-06-30T13:56:04.786Z,29.2
2018-06-30T13:58:04.638Z,29.2
2018-06-30T14:00:05.340Z,29.2
2018-06-30T14:02:04.991Z,29.1
2018-06-30T14:04:07.445Z,29.1
2018-06-30T14:06:05.445Z,29.1
2018-06-30T14:08:05.209Z,29.2
2018-06-30T14:10:05.120Z,29.3
2018-06-30T14:12:05.216Z,29.3
2018-06-30T14:14:05.300Z,29.4
2018-06-30T14:16:05.012Z,29.4
2018-06-30T14:18:08.149Z,29.4
2018-06-30T14:20:06.043Z,29.4
2018-06-30T14:22:04.965Z,29.4
2018-06-30T14:24:13.281Z,29.5
2018-06-30T14:26:05.170Z,29.5
2018-06-30T14:28:04.840Z,29.5
2018-06-30T14:30:08.130Z,29.5
2018-06-30T14:32:10.394Z,29.6
2018-06-30T14:34:05.267Z,29.5
2018-06-30T14:36:10.541Z,29.6
2018-06-30T14:38:05.231Z,29.6
2018-06-30T14:40:04.923Z,29.6
2018-06-30T14:42:05.604Z,29.6
2018-06-30T14:44:05.332Z,29.6
2018-06-30T14:46:04.999Z,29.6
2018-06-30T14:48:04.742Z,29.6
2018-06-30T14:50:04.986Z,29.6
2018-06-30T14:52:04.688Z,29.6
2018-06-30T14:54:05.509Z,29.6
2018-06-30T14:56:05.264Z,29.6
2018-06-30T14:58:04.795Z,29.6
2018-06-30T15:00:05.527Z,29.6
2018-06-30T15:02:05.233Z,29.6
2018-06-30T15:04:04.938Z,29.7
2018-06-30T15:06:04.661Z,29.6
2018-06-30T15:08:07.846Z,29.7
2018-06-30T15:10:05.522Z,29.7
2018-06-30T15:12:05.293Z,29.7
2018-06-30T15:14:05.044Z,29.7
2018-06-30T15:16:04.780Z,29.7
2018-06-30T15:18:04.679Z,29.7
2018-06-30T15:20:07.930Z,29.6
2018-06-30T15:22:05.660Z,29.6
2018-06-30T15:24:10.696Z,29.7
2018-06-30T15:26:05.365Z,29.7
2018-06-30T15:28:05.080Z,29.7
2018-06-30T15:30:07.366Z,29.7
2018-06-30T15:32:07.686Z,29.6
2018-06-30T15:34:05.340Z,29.6
2018-06-30T15:36:05.178Z,29.6
2018-06-30T15:38:05.124Z,29.6
2018-06-30T15:40:04.805Z,29.6
2018-06-30T15:42:10.571Z,29.6
2018-06-30T15:44:04.787Z,29.6
2018-06-30T15:46:05.561Z,29.7
2018-06-30T15:48:05.265Z,29.7
2018-06-30T15:50:10.095Z,29.7
2018-06-30T15:52:07.272Z,29.7
2018-06-30T15:54:07.482Z,29.7
2018-06-30T15:56:05.205Z,29.7
2018-06-30T15:58:04.879Z,29.8
2018-06-30T16:00:13.299Z,29.8
2018-06-30T16:02:05.043Z,29.8
2018-06-30T16:04:04.806Z,29.8
2018-06-30T16:06:08.088Z,29.8
2018-06-30T16:08:07.351Z,29.8
2018-06-30T16:10:05.609Z,29.8
2018-06-30T16:12:05.472Z,29.8
2018-06-30T16:14:05.206Z,29.8
2018-06-30T16:16:04.885Z,29.8
2018-06-30T16:18:09.853Z,29.8
2018-06-30T16:20:05.528Z,29.8
2018-06-30T16:22:05.220Z,29.8
2018-06-30T16:24:04.916Z,29.8
2018-06-30T16:26:05.594Z,29.8
2018-06-30T16:28:05.319Z,29.9
2018-06-30T16:30:05.112Z,29.9
2018-06-30T16:32:05.098Z,29.9
2018-06-30T16:34:04.767Z,29.9
2018-06-30T16:36:05.451Z,29.9
2018-06-30T16:38:05.115Z,29.9
2018-06-30T16:40:05.307Z,29.9
2018-06-30T16:42:05.610Z,29.9
2018-06-30T16:44:10.423Z,29.9
2018-06-30T16:46:05.078Z,29.9
2018-06-30T16:48:12.861Z,29.9
2018-06-30T16:50:05.582Z,29.9
2018-06-30T16:52:05.380Z,29.9
2018-06-30T16:54:05.083Z,29.9
2018-06-30T16:56:04.770Z,29.9
2018-06-30T16:58:05.434Z,29.9
2018-06-30T17:00:05.190Z,29.9
2018-06-30T17:02:04.859Z,29.9
2018-06-30T17:04:05.609Z,29.9
2018-06-30T17:06:05.331Z,29.9
2018-06-30T17:08:05.323Z,29.9
2018-06-30T17:10:07.528Z,30
2018-06-30T17:12:04.734Z,29.9
2018-06-30T17:14:05.432Z,29.9
2018-06-30T17:16:05.112Z,30
2018-06-30T17:18:05.076Z,30
2018-06-30T17:20:04.852Z,29.9
2018-06-30T17:22:04.780Z,29.9
2018-06-30T17:24:10.561Z,29.9
2018-06-30T17:26:05.352Z,30
2018-06-30T17:28:05.476Z,29.9
2018-06-30T17:30:05.208Z,30
2018-06-30T17:32:04.996Z,29.9
2018-06-30T17:34:05.243Z,30
2018-06-30T17:36:12.537Z,30
2018-06-30T17:38:05.324Z,30
2018-06-30T17:40:05.019Z,30
2018-06-30T17:42:04.831Z,30
2018-06-30T17:44:05.554Z,30
2018-06-30T17:46:05.273Z,29.9
2018-06-30T17:48:04.936Z,30
2018-06-30T17:50:05.569Z,30
2018-06-30T17:52:04.852Z,30
2018-06-30T17:54:05.094Z,30
2018-06-30T17:56:04.800Z,30
2018-06-30T17:58:04.989Z,30
2018-06-30T18:00:04.711Z,30
2018-06-30T18:02:05.399Z,30
2018-06-30T18:04:05.053Z,30
2018-06-30T18:06:04.833Z,30
2018-06-30T18:08:05.577Z,30
2018-06-30T18:10:05.295Z,30
2018-06-30T18:12:05.380Z,30
2018-06-30T18:14:05.085Z,30
2018-06-30T18:16:04.920Z,30
2018-06-30T18:18:05.351Z,30
2018-06-30T18:20:10.069Z,30
2018-06-30T18:22:04.768Z,30
2018-06-30T18:24:05.437Z,30
2018-06-30T18:26:05.182Z,30
2018-06-30T18:28:04.876Z,30
2018-06-30T18:30:05.706Z,30
2018-06-30T18:32:07.977Z,29.9
2018-06-30T18:34:07.233Z,29.7
2018-06-30T18:36:07.448Z,29.6
2018-06-30T18:38:15.285Z,29.6
2018-06-30T18:40:05.530Z,29.6
2018-06-30T18:42:04.757Z,29.5
2018-06-30T18:44:05.454Z,29.5
2018-06-30T18:46:05.115Z,29.5
2018-06-30T18:48:07.891Z,29.4
2018-06-30T18:50:05.232Z,29.4
2018-06-30T18:52:04.939Z,29.4
2018-06-30T18:54:04.701Z,29.4
2018-06-30T18:56:05.409Z,29.4
2018-06-30T18:58:07.606Z,29.4
2018-06-30T19:00:07.394Z,29.4
2018-06-30T19:02:05.097Z,29.4
2018-06-30T19:04:04.846Z,29.4
2018-06-30T19:06:05.555Z,29.4
2018-06-30T19:08:05.201Z,29.3
2018-06-30T19:10:05.477Z,29.2
2018-06-30T19:12:04.656Z,29.3
2018-06-30T19:14:05.392Z,29.3
2018-06-30T19:16:05.378Z,29.3
2018-06-30T19:18:04.995Z,29.3
2018-06-30T19:20:07.210Z,29.3
2018-06-30T19:22:04.944Z,29.3
2018-06-30T19:24:05.120Z,29.1
2018-06-30T19:26:05.375Z,29.2
2018-06-30T19:28:05.116Z,29.1
2018-06-30T19:30:05.020Z,29.1
2018-06-30T19:32:10.298Z,29.1
2018-06-30T19:34:05.073Z,29.1
2018-06-30T19:36:04.841Z,29.1
2018-06-30T19:38:08.056Z,29.1
2018-06-30T19:40:04.669Z,29.1
2018-06-30T19:42:05.392Z,29.1
2018-06-30T19:44:07.315Z,29.1
2018-06-30T19:46:05.143Z,29
2018-06-30T19:48:07.462Z,29.1
2018-06-30T19:50:07.662Z,29.1
2018-06-30T19:52:05.332Z,29.1
2018-06-30T19:54:05.026Z,29.1
2018-06-30T19:56:04.734Z,29.1
2018-06-30T19:58:05.478Z,29.1
2018-06-30T20:00:05.202Z,29.1
2018-06-30T20:02:07.594Z,29.1
2018-06-30T20:04:04.862Z,29
2018-06-30T20:06:08.133Z,29
2018-06-30T20:08:05.028Z,29
2018-06-30T20:10:04.799Z,28.9
2018-06-30T20:12:05.544Z,28.9
2018-06-30T20:14:04.724Z,28.9
2018-06-30T20:16:08.068Z,28.9
2018-06-30T20:18:04.974Z,28.9
2018-06-30T20:20:04.663Z,28.9
2018-06-30T20:22:10.388Z,28.9
2018-06-30T20:24:05.134Z,28.9
2018-06-30T20:26:04.834Z,28.8
2018-06-30T20:28:05.019Z,28.8
2018-06-30T20:30:05.698Z,28.8
2018-06-30T20:32:05.720Z,28.8
2018-06-30T20:34:05.462Z,28.8
2018-06-30T20:36:05.166Z,28.8
2018-06-30T20:38:04.825Z,28.8
2018-06-30T20:40:05.504Z,28.7
2018-06-30T20:42:05.224Z,28.7
2018-06-30T20:44:04.872Z,28.7
2018-06-30T20:46:05.559Z,28.7
2018-06-30T20:48:05.316Z,28.7
2018-06-30T20:50:05.113Z,28.8
2018-06-30T20:52:04.780Z,28.8
2018-06-30T20:54:04.712Z,28.8
2018-06-30T20:56:05.304Z,28.8
2018-06-30T20:58:05.255Z,28.8
2018-06-30T21:00:05.715Z,28.8
2018-06-30T21:02:04.659Z,28.8
2018-06-30T21:04:05.376Z,28.8
2018-06-30T21:06:05.077Z,28.8
2018-06-30T21:08:04.785Z,28.7
2018-06-30T21:10:04.838Z,28.7
2018-06-30T21:12:05.578Z,28.7
2018-06-30T21:14:05.483Z,28.7
2018-06-30T21:16:04.673Z,28.6
2018-06-30T21:18:10.659Z,28.5
2018-06-30T21:20:07.878Z,28.5
2018-06-30T21:22:08.146Z,28.3
2018-06-30T21:24:04.828Z,28.3
2018-06-30T21:26:05.599Z,28.3
2018-06-30T21:28:05.319Z,28.2
2018-06-30T21:30:10.036Z,28.2
2018-06-30T21:32:04.723Z,28.2
2018-06-30T21:34:05.608Z,28.1
2018-06-30T21:36:05.354Z,28.2
2018-06-30T21:38:10.287Z,28.2
2018-06-30T21:40:09.997Z,28.2
2018-06-30T21:42:04.702Z,28.2
2018-06-30T21:44:04.907Z,28.1
2018-06-30T21:46:05.609Z,28.2
2018-06-30T21:48:05.429Z,28.3
2018-06-30T21:50:05.343Z,28.3
2018-06-30T21:52:05.262Z,28.4
2018-06-30T21:54:07.513Z,28.3
2018-06-30T21:56:05.591Z,28.3
2018-06-30T21:58:05.291Z,28.3
2018-06-30T22:00:05.502Z,28.2
2018-06-30T22:02:05.222Z,28.2
2018-06-30T22:04:04.920Z,28.1
2018-06-30T22:06:05.784Z,28.1
2018-06-30T22:08:15.072Z,28.2
2018-06-30T22:10:04.799Z,28.2
2018-06-30T22:12:05.933Z,28.1
2018-06-30T22:14:04.592Z,28.1
2018-06-30T22:16:05.322Z,28.1
2018-06-30T22:18:07.900Z,27.8
2018-06-30T22:20:09.088Z,27.8
2018-06-30T22:22:06.250Z,27.8
2018-06-30T22:24:05.029Z,28
2018-06-30T22:26:04.913Z,28
2018-06-30T22:28:04.828Z,27.9
2018-06-30T22:30:08.077Z,28
2018-06-30T22:32:05.277Z,27.9
2018-06-30T22:34:05.032Z,28
2018-06-30T22:36:04.935Z,28.1
2018-06-30T22:38:07.816Z,28
2018-06-30T22:40:04.963Z,28
2018-06-30T22:42:04.913Z,27.9
2018-06-30T22:44:07.170Z,28
2018-06-30T22:46:04.839Z,28
2018-06-30T22:48:05.568Z,27.9
2018-06-30T22:50:05.191Z,27.9
2018-06-30T22:52:05.034Z,27.9
2018-06-30T22:54:05.215Z,27.9
2018-06-30T22:56:07.612Z,28
2018-06-30T22:58:05.259Z,27.9
2018-06-30T23:00:07.495Z,28
2018-06-30T23:02:04.789Z,28
2018-06-30T23:04:05.477Z,28
2018-06-30T23:06:05.169Z,28
2018-06-30T23:08:04.827Z,28
2018-06-30T23:10:05.056Z,28
2018-06-30T23:12:04.799Z,27.9
2018-06-30T23:14:05.475Z,27.9
2018-06-30T23:16:07.262Z,27.9
2018-06-30T23:18:05.252Z,27.9
2018-06-30T23:20:05.587Z,27.9
2018-06-30T23:22:05.348Z,27.8
2018-06-30T23:24:05.053Z,27.9
2018-06-30T23:26:04.799Z,27.8
2018-06-30T23:28:05.538Z,27.8
2018-06-30T23:30:04.747Z,27.8
2018-06-30T23:32:07.939Z,27.7
2018-06-30T23:34:04.613Z,27.7
2018-06-30T23:36:05.556Z,27.8
2018-06-30T23:38:05.343Z,27.8
2018-06-30T23:40:04.996Z,27.7
2018-06-30T23:42:07.233Z,27.8
2018-06-30T23:44:04.918Z,27.7
2018-06-30T23:46:05.663Z,27.7
2018-06-30T23:48:05.450Z,27.8
2018-06-30T23:50:05.173Z,27.8
2018-06-30T23:52:04.835Z,27.7
2018-06-30T23:54:04.761Z,27.8
2018-06-30T23:56:05.435Z,27.7
2018-06-30T23:58:05.180Z,27.6
